Meteo Giornale » Osservazioni meteo Stati Uniti (USA) » Dickinson
ore: 05:56 - Osservazioni Meteo Dickinson
Lat. 46° 47' N Lon. 102° 48' W Alt. 790 metri s.l.m.
8 °C
Sereno
Temp. 24 Ore
8 °C
26 °C
Nord
5.5 Km/h
Dew point 6 °C
Umidità 87 %
Visibilità 10 Km
Il sole sorge alle ore 06:11
Il sole tramonta alle ore 19:30
| Data e Ora | Cielo e Fenomeni | T °C | DP °C | Um. % | Pres. hPa | Vis. km | Vento km/h | |
|---|---|---|---|---|---|---|---|---|
| Oggi h: 05:56 | Sereno | 8 | 6 | 87 | 1016 | 10 | N 5.5 | |
| Oggi h: 04:56 | Sereno | 8 | 6 | 87 | 1016 | 10 | N 0 | |
| Oggi h: 03:56 | Sereno | 9 | 6 | 81 | 1015 | 10 | N 0 | |
| Oggi h: 02:56 | Sereno | 12 | 6 | 66 | 1015 | 10 | O/NO 11.1 | |
| Oggi h: 01:56 | Sereno | 9 | 6 | 81 | 1016 | 10 | S/SO 7.4 | |
| Oggi h: 00:56 | Sereno | 11 | 6 | 71 | 1016 | 10 | N 0 | |
| Ieri h: 23:56 | Sereno | 12 | 6 | 66 | 1015 | 10 | S 7.4 | |
| Ieri h: 22:56 | Sereno | 14 | 6 | 58 | 1015 | 10 | SO 9.3 | |
| Ieri h: 21:56 | Sereno | 14 | 6 | 58 | 1015 | 10 | SO 7.4 | |
| Ieri h: 20:56 | Sereno | 15 | 6 | 54 | 1014 | 10 | O 11.1 | |
| Ieri h: 19:56 | Sereno | 17 | 6 | 48 | 1013 | 10 | O 13 | |
| Ieri h: 18:56 | Sereno | 23 | 5 | 31 | 1013 | 10 | O 22.2 | |
| Ieri h: 17:56 | Sereno | 25 | 4 | 25 | 1012 | 10 | O 37 | |
| Ieri h: 16:56 | Sereno | 26 | 5 | 25 | 1012 | 10 | O 33.3 | |
| Ieri h: 15:56 | Sereno | 26 | 4 | 24 | 1012 | 10 | O 37 | |
| Ieri h: 14:56 | Sereno | 26 | 5 | 25 | 1012 | 10 | O 40.7 | |
| Ieri h: 13:56 | Sereno | 25 | 5 | 27 | 1013 | 10 | O 40.7 | |
| Ieri h: 12:56 | Sereno | 24 | 4 | 27 | 1013 | 10 | O 37 | |
| Ieri h: 11:56 | Sereno | 24 | 4 | 27 | 1013 | 10 | O 40.7 | |
| Ieri h: 10:56 | Sereno | 23 | 4 | 28 | 1013 | 10 | O 48.1 | |
| Ieri h: 09:56 | Sereno | 20 | 6 | 39 | 1013 | 10 | O 40.7 | |
| Ieri h: 08:56 | Sereno | 18 | 7 | 48 | 1013 | 10 | O 33.3 | |
| Ieri h: 07:56 | Sereno | 14 | 9 | 71 | 1013 | 10 | SO 24 | |
| Ieri h: 06:56 | Sereno | 13 | 9 | 76 | 1012 | 10 | O 16.7 | |



